Time;durP1;ratioP1;P1;durP2;ratioP2;P2;SDS_P1;SDS_P2;PMS_P1;PMS_P2;Temp;Humidity;BMP_temperature;BMP_pressure;BME280_temperature;BME280_humidity;BME280_pressure;Samples;Min_cycle;Max_cycle;Signal;HPM_P1;HPM_P2
2021/12/31 00:07:45;;;;;;;3.00;2.00;;;14.40;99.90;;;;;;21000744;28;20276;-72
2021/12/31 00:17:47;;;;;;;2.60;1.83;;;14.40;99.90;;;;;;21000120;28;20292;-69
2021/12/31 00:27:49;;;;;;;10.40;2.10;;;14.40;99.90;;;;;;20999638;28;20203;-69
2021/12/31 00:37:51;;;;;;;2.13;1.70;;;14.40;99.90;;;;;;20998474;28;20295;-69
2021/12/31 00:47:53;;;;;;;1.97;1.50;;;14.40;99.90;;;;;;20996591;28;20199;-72
2021/12/31 00:57:55;;;;;;;2.23;1.70;;;14.40;99.90;;;;;;20997406;28;20284;-73
2021/12/31 01:07:59;;;;;;;4.03;1.80;;;14.30;99.90;;;;;;20995808;28;20238;-68
2021/12/31 01:28:04;;;;;;;1.70;1.60;;;14.30;99.90;;;;;;20996052;28;20654;-73
2021/12/31 01:38:06;;;;;;;1.70;1.60;;;14.30;99.90;;;;;;20994787;28;20231;-69
2021/12/31 01:48:20;;;;;;;4.23;2.00;;;14.20;99.90;;;;;;20994923;28;20215;-72
2021/12/31 01:58:24;;;;;;;2.50;1.67;;;14.20;99.90;;;;;;20994714;28;20235;-71
2021/12/31 02:08:27;;;;;;;5.20;1.60;;;14.20;99.90;;;;;;20993916;28;20726;-70
2021/12/31 02:18:30;;;;;;;2.97;1.70;;;14.20;99.90;;;;;;20997937;28;20230;-70
2021/12/31 02:28:32;;;;;;;2.47;1.83;;;14.20;99.90;;;;;;21009283;28;20203;-71
2021/12/31 02:38:34;;;;;;;3.77;1.73;;;14.20;99.90;;;;;;21007929;28;20288;-71
2021/12/31 02:48:36;;;;;;;1.93;1.70;;;14.20;99.90;;;;;;21007467;28;20678;-70
2021/12/31 02:58:39;;;;;;;2.60;1.70;;;14.10;99.90;;;;;;21007098;28;20706;-73
2021/12/31 03:08:44;;;;;;;2.23;1.70;;;14.10;99.90;;;;;;21005722;28;20769;-74
2021/12/31 03:18:47;;;;;;;2.70;1.77;;;14.10;99.90;;;;;;21005161;28;20230;-73
2021/12/31 03:28:49;;;;;;;2.47;1.90;;;14.10;99.90;;;;;;21003931;28;20232;-73
2021/12/31 03:38:51;;;;;;;2.60;1.87;;;14.00;99.90;;;;;;21003600;28;20239;-71
2021/12/31 03:48:53;;;;;;;3.47;1.73;;;14.00;99.90;;;;;;21002686;28;20209;-71
2021/12/31 03:58:55;;;;;;;2.80;1.90;;;14.00;99.90;;;;;;21002128;28;20775;-71
2021/12/31 04:08:57;;;;;;;4.63;2.00;;;13.90;99.90;;;;;;21000971;28;20235;-72
2021/12/31 04:18:58;;;;;;;2.57;2.00;;;13.90;99.90;;;;;;21000149;28;20233;-71
2021/12/31 04:29:00;;;;;;;3.60;2.00;;;13.90;99.90;;;;;;20999800;28;20708;-73
2021/12/31 04:39:02;;;;;;;3.87;2.13;;;13.90;99.90;;;;;;20998404;28;20292;-73
2021/12/31 04:49:06;;;;;;;3.90;2.30;;;13.80;99.90;;;;;;20997770;28;20208;-72
2021/12/31 04:59:09;;;;;;;4.17;2.50;;;13.80;99.90;;;;;;20997274;28;20235;-69
2021/12/31 05:09:10;;;;;;;3.40;2.40;;;13.70;99.90;;;;;;20996352;28;20231;-71
2021/12/31 05:19:12;;;;;;;6.63;2.70;;;13.60;99.90;;;;;;20996251;28;20235;-72
2021/12/31 05:29:14;;;;;;;5.17;2.50;;;13.50;99.90;;;;;;20996048;28;20207;-73
2021/12/31 05:39:17;;;;;;;3.23;2.30;;;13.50;99.90;;;;;;20995452;28;20712;-73
2021/12/31 05:49:18;;;;;;;5.80;2.60;;;13.40;99.90;;;;;;20993737;28;20216;-72
2021/12/31 05:59:20;;;;;;;3.93;2.70;;;13.50;99.90;;;;;;21009338;28;20458;-72
2021/12/31 06:09:22;;;;;;;3.30;2.17;;;13.50;99.90;;;;;;21010280;28;20706;-73
2021/12/31 06:19:23;;;;;;;6.00;2.30;;;13.40;99.90;;;;;;21009668;28;20289;-75
2021/12/31 06:29:25;;;;;;;3.47;2.00;;;13.40;99.90;;;;;;21009222;28;20207;-74
2021/12/31 06:39:27;;;;;;;2.97;2.20;;;13.40;99.90;;;;;;21007986;28;20305;-73
2021/12/31 06:49:30;;;;;;;2.77;1.90;;;13.40;99.90;;;;;;21007150;28;20607;-72
2021/12/31 06:59:31;;;;;;;4.90;2.00;;;13.50;99.90;;;;;;21006413;28;20230;-70
2021/12/31 07:09:33;;;;;;;3.27;2.40;;;13.40;99.90;;;;;;21004491;28;20314;-66
2021/12/31 07:19:35;;;;;;;4.33;2.20;;;13.30;99.90;;;;;;20998443;28;20458;-65
2021/12/31 07:29:36;;;;;;;3.10;2.20;;;13.80;99.70;;;;;;21004884;28;20203;-71
2021/12/31 07:39:46;;;;;;;6.53;3.20;;;13.30;99.90;;;;;;21003399;28;20232;-70
2021/12/31 07:49:47;;;;;;;3.90;3.20;;;13.20;99.90;;;;;;21003165;28;20254;-68
2021/12/31 07:59:49;;;;;;;5.67;3.77;;;13.10;99.90;;;;;;21001641;28;20285;-68
2021/12/31 08:09:51;;;;;;;7.47;4.30;;;13.00;99.90;;;;;;20981820;28;20259;-68
2021/12/31 08:20:13;;;;;;;7.17;3.97;;;13.00;99.90;;;;;;20958819;28;20231;-70
2021/12/31 08:30:14;;;;;;;7.00;3.97;;;13.00;99.90;;;;;;20916641;28;20204;-70
2021/12/31 08:40:16;;;;;;;5.57;3.77;;;13.10;99.90;;;;;;20916160;28;20650;-69
2021/12/31 08:50:18;;;;;;;6.23;3.30;;;13.10;99.90;;;;;;20915438;28;20265;-73
2021/12/31 09:00:20;;;;;;;4.90;3.23;;;13.30;99.90;;;;;;20942063;28;20223;-70
2021/12/31 09:10:21;;;;;;;4.37;3.33;;;13.50;99.90;;;;;;20996552;28;20231;-70
2021/12/31 09:20:23;;;;;;;4.23;3.00;;;13.60;99.90;;;;;;20994207;28;20230;-70
2021/12/31 09:30:26;;;;;;;5.23;2.80;;;13.70;99.90;;;;;;20994992;28;20284;-70
2021/12/31 09:40:27;;;;;;;4.57;2.70;;;13.80;99.90;;;;;;20995591;28;20278;-70
2021/12/31 09:50:29;;;;;;;3.93;2.70;;;13.90;99.90;;;;;;20994772;28;20280;-71
2021/12/31 10:00:31;;;;;;;3.27;2.67;;;14.00;99.80;;;;;;20964716;28;20227;-65
2021/12/31 10:10:33;;;;;;;3.23;2.30;;;14.10;99.60;;;;;;20910682;28;20242;-69
2021/12/31 10:20:47;;;;;;;4.33;2.60;;;14.20;99.50;;;;;;20907701;28;20286;-70
2021/12/31 10:30:51;;;;;;;3.07;2.47;;;14.30;99.30;;;;;;20908459;28;20681;-67
2021/12/31 10:41:00;;;;;;;3.87;2.20;;;14.40;99.20;;;;;;20916567;28;20274;-66
2021/12/31 10:51:02;;;;;;;2.33;2.10;;;14.50;99.10;;;;;;20924597;28;20257;-67
2021/12/31 11:01:05;;;;;;;2.27;1.53;;;14.60;98.90;;;;;;20957258;28;20308;-73
2021/12/31 11:11:08;;;;;;;4.37;1.70;;;14.70;98.60;;;;;;21027547;28;20259;-69
2021/12/31 11:21:12;;;;;;;3.83;2.00;;;14.80;98.50;;;;;;21060310;28;20260;-72
2021/12/31 11:31:20;;;;;;;3.03;1.53;;;14.80;98.50;;;;;;21062964;28;20207;-69
2021/12/31 11:41:23;;;;;;;4.37;1.93;;;14.70;97.90;;;;;;21003261;28;20245;-69
2021/12/31 11:51:35;;;;;;;5.33;2.30;;;14.90;98.00;;;;;;21000648;28;20210;-63
2021/12/31 12:01:48;;;;;;;2.73;1.80;;;15.00;97.90;;;;;;21001689;28;20202;-69
2021/12/31 12:12:15;;;;;;;6.43;1.70;;;15.20;98.00;;;;;;20999977;28;20238;-67
2021/12/31 12:22:39;;;;;;;3.97;1.60;;;15.70;97.50;;;;;;21038763;28;20623;-66
2021/12/31 12:42:45;;;;;;;2.10;1.80;;;15.90;96.80;;;;;;21082077;28;20214;-72
2021/12/31 12:52:56;;;;;;;4.23;2.00;;;15.80;96.70;;;;;;21023258;28;20227;-69
2021/12/31 13:03:09;;;;;;;4.93;1.60;;;15.80;96.60;;;;;;20995744;28;20210;-66
2021/12/31 13:13:14;;;;;;;2.53;1.63;;;15.80;96.60;;;;;;20996603;28;20255;-67
2021/12/31 13:23:18;;;;;;;1.90;1.60;;;15.70;96.70;;;;;;21009041;28;20260;-63
2021/12/31 13:33:28;;;;;;;3.07;1.90;;;15.60;96.50;;;;;;20926604;28;20230;-63
2021/12/31 13:43:30;;;;;;;2.77;1.83;;;15.40;96.50;;;;;;20964529;28;20245;-63
2021/12/31 13:53:31;;;;;;;5.17;2.40;;;15.40;96.60;;;;;;20994441;28;20230;-64
2021/12/31 14:03:33;;;;;;;2.73;2.03;;;15.30;96.60;;;;;;20994323;28;20265;-73
2021/12/31 14:13:39;;;;;;;2.53;1.97;;;15.20;96.70;;;;;;21032326;28;20248;-72
2021/12/31 14:23:41;;;;;;;3.47;1.70;;;15.10;96.60;;;;;;21091772;28;20301;-73
2021/12/31 14:33:43;;;;;;;3.80;1.97;;;15.00;96.60;;;;;;21092437;28;20231;-65
2021/12/31 14:43:44;;;;;;;4.17;1.90;;;15.00;96.70;;;;;;21091952;28;20213;-67
2021/12/31 14:53:46;;;;;;;2.03;1.80;;;14.80;96.80;;;;;;21089887;28;20236;-63
2021/12/31 15:03:51;;;;;;;4.00;2.00;;;14.70;96.90;;;;;;21090338;28;20234;-72
2021/12/31 15:13:53;;;;;;;3.93;1.90;;;14.60;97.30;;;;;;21089386;28;20293;-72
2021/12/31 15:23:55;;;;;;;2.57;2.00;;;14.40;97.70;;;;;;21088199;28;20665;-64
2021/12/31 15:33:56;;;;;;;4.30;2.33;;;14.40;97.80;;;;;;21087131;28;20235;-64
2021/12/31 15:43:58;;;;;;;4.50;3.20;;;14.20;98.10;;;;;;20938396;28;20273;-63
2021/12/31 15:54:00;;;;;;;3.10;2.73;;;14.10;98.30;;;;;;20975001;28;20253;-72
2021/12/31 16:04:01;;;;;;;4.63;2.50;;;13.90;98.50;;;;;;20963308;28;20200;-68
2021/12/31 16:14:03;;;;;;;3.50;2.00;;;13.90;98.70;;;;;;20918030;28;20239;-69
2021/12/31 16:24:06;;;;;;;5.20;2.40;;;13.80;98.90;;;;;;20917212;28;20212;-69
2021/12/31 16:34:10;;;;;;;3.50;2.30;;;13.80;98.90;;;;;;20916097;28;20231;-66
2021/12/31 16:44:13;;;;;;;3.67;2.30;;;13.70;99.00;;;;;;20915186;28;20205;-74
2021/12/31 16:54:15;;;;;;;3.90;2.10;;;13.70;99.00;;;;;;20947065;28;20231;-64
2021/12/31 17:04:16;;;;;;;2.93;2.30;;;13.70;98.80;;;;;;20913925;28;20234;-64
2021/12/31 17:14:19;;;;;;;6.70;4.03;;;13.60;99.00;;;;;;20913702;28;20241;-70
2021/12/31 17:24:21;;;;;;;3.13;2.17;;;13.50;99.20;;;;;;20913587;28;20262;-68
2021/12/31 17:34:23;;;;;;;4.83;2.00;;;13.40;99.20;;;;;;20944624;28;20237;-73
2021/12/31 17:44:37;;;;;;;4.53;2.30;;;13.40;99.20;;;;;;20913275;28;20215;-65
2021/12/31 17:54:39;;;;;;;3.10;2.53;;;13.40;99.70;;;;;;20925991;28;20246;-69
2021/12/31 18:04:41;;;;;;;3.10;2.27;;;13.40;99.40;;;;;;20928479;28;20231;-65
2021/12/31 18:14:43;;;;;;;3.27;2.10;;;13.30;99.30;;;;;;20927926;28;20241;-67
2021/12/31 18:24:45;;;;;;;5.20;2.50;;;13.20;99.30;;;;;;20927381;28;20660;-70
2021/12/31 18:34:46;;;;;;;3.50;2.40;;;13.20;99.30;;;;;;20926345;28;20279;-70
2021/12/31 18:44:48;;;;;;;2.37;2.00;;;13.10;99.20;;;;;;20998178;28;20253;-61
2021/12/31 18:54:50;;;;;;;4.60;2.80;;;13.00;99.30;;;;;;21007855;28;20690;-67
2021/12/31 19:04:51;;;;;;;4.20;2.60;;;12.90;99.30;;;;;;21006366;28;20277;-62
2021/12/31 19:14:53;;;;;;;5.37;2.67;;;12.90;99.40;;;;;;21005667;28;20240;-64
2021/12/31 19:24:55;;;;;;;3.70;2.90;;;12.90;99.40;;;;;;21005834;28;20203;-64
2021/12/31 19:34:57;;;;;;;7.43;3.80;;;12.90;99.40;;;;;;21002471;28;20281;-66
2021/12/31 19:44:59;;;;;;;6.40;3.90;;;12.90;99.40;;;;;;20928907;28;20343;-66
2021/12/31 19:55:00;;;;;;;6.03;4.07;;;13.00;99.30;;;;;;20949501;28;20239;-67
2021/12/31 20:05:02;;;;;;;6.90;3.60;;;13.10;99.20;;;;;;21001158;28;20723;-72
2021/12/31 20:15:04;;;;;;;6.10;3.73;;;13.10;99.00;;;;;;20999796;28;20293;-69
2021/12/31 20:25:09;;;;;;;4.00;3.37;;;13.20;98.60;;;;;;20999748;28;20663;-68
2021/12/31 20:35:12;;;;;;;4.27;3.33;;;13.20;98.90;;;;;;20999125;28;20710;-72
2021/12/31 20:45:15;;;;;;;5.80;3.70;;;13.10;98.90;;;;;;20920866;28;20227;-72
2021/12/31 20:55:18;;;;;;;7.00;3.97;;;13.20;99.00;;;;;;20914491;28;20296;-76
2021/12/31 21:05:19;;;;;;;6.13;3.63;;;13.20;99.10;;;;;;20913195;28;20224;-72
2021/12/31 21:15:21;;;;;;;5.80;3.50;;;13.20;99.20;;;;;;20912561;28;20239;-75
2021/12/31 21:25:24;;;;;;;5.33;3.50;;;13.30;99.50;;;;;;20913047;28;20209;-76
2021/12/31 21:35:26;;;;;;;6.87;4.00;;;13.40;99.60;;;;;;20912630;28;20236;-75
2021/12/31 21:45:28;;;;;;;5.50;4.13;;;13.50;99.70;;;;;;20990677;28;20610;-76
2021/12/31 21:55:31;;;;;;;6.90;4.17;;;13.50;99.70;;;;;;20995284;28;20261;-72
2021/12/31 22:05:33;;;;;;;7.67;3.90;;;13.50;99.80;;;;;;20994189;28;20302;-72
2021/12/31 22:15:35;;;;;;;6.83;4.60;;;13.50;99.90;;;;;;20993463;28;20234;-74
2021/12/31 22:25:36;;;;;;;7.13;4.90;;;13.50;99.90;;;;;;20991993;28;20200;-70
2021/12/31 22:35:38;;;;;;;5.90;3.80;;;13.60;99.90;;;;;;20992532;28;20235;-71
2021/12/31 22:45:40;;;;;;;12.10;6.73;;;13.50;99.90;;;;;;21001263;28;20208;-71
2021/12/31 22:55:42;;;;;;;6.97;4.30;;;13.50;99.90;;;;;;21001914;28;20240;-71
2021/12/31 23:05:44;;;;;;;5.50;4.23;;;13.50;99.90;;;;;;21004094;28;20257;-71
2021/12/31 23:15:45;;;;;;;7.60;4.83;;;13.50;99.90;;;;;;21001728;28;20234;-69
2021/12/31 23:25:47;;;;;;;12.40;7.37;;;13.50;99.90;;;;;;21002146;28;20216;-69
2021/12/31 23:35:50;;;;;;;8.87;6.23;;;13.60;99.90;;;;;;21002029;28;20787;-67
2021/12/31 23:45:51;;;;;;;11.17;6.30;;;13.60;99.90;;;;;;21000428;28;20207;-70
2021/12/31 23:55:53;;;;;;;7.53;5.40;;;13.60;99.90;;;;;;21000596;28;20376;-70
